Flight Track Log - Related Links

Times and Time Zones

All times are in EDT time to prevent confusion due to time zone crossing. See the AAL2007 flight status page for this flight to view local times or setup timezone preferences in your user account.

Time Position Orientation Groundspeed Altitude Reporting Facility
EDT Latitude Longitude Course Direction KTS MPH feet Rate Location/Type
Fri 06:23:36 PM 41.9500 -87.8333 207° Southwest 207 238 2,900  Level Chicago TRACON
Fri 06:24:37 PM 41.9000 -87.7833 143° Southeast 259 298 4,500 1,878 Climbing Chicago TRACON
Fri 06:25:00 PM 41.7032 -88.1854 201° Southwest  Level Estimated
Fri 06:25:47 PM 41.8203 -87.7486 162° South 266 306 7,000  Level Chicago Center
Fri 06:26:00 PM 41.6102 -88.2777 197° South  Level Estimated
Fri 06:26:50 PM 41.7461 -87.7278 168° South 279 321 9,700  Level Chicago Center
Fri 06:27:00 PM 41.5172 -88.3698 194° South  Level Estimated
Fri 06:27:52 PM 41.6872 -87.7992 222° Southwest 289 333 11,900  Level Chicago Center
Fri 06:28:00 PM 41.4241 -88.4617 207° Southwest  Level Estimated
Fri 06:28:54 PM 41.6267 -87.8778 224° Southwest 303 349 13,900  Level Chicago Center
Fri 06:29:56 PM 41.5506 -87.9800 225° Southwest 324 373 16,500 1,742 Climbing Chicago Center
Fri 06:30:58 PM 41.4653 -88.0275 203° Southwest 360 414 17,500 1,113 Climbing Chicago Center
Fri 06:32:00 PM 41.3472 -88.0936 203° Southwest 391 450 18,800 1,500 Climbing Chicago Center
Fri 06:33:02 PM 41.2392 -88.1533 203° Southwest 416 479 20,600 1,597 Climbing Chicago Center
Fri 06:34:04 PM 41.1289 -88.2161 203° Southwest 429 494 22,100 1,500 Climbing Chicago Center
Fri 06:35:06 PM 41.0142 -88.2811 203° Southwest 445 512 23,700 1,452 Climbing Chicago Center
Fri 06:36:08 PM 40.8989 -88.3450 203° Southwest 451 519 25,100 1,306 Climbing Chicago Center
Fri 06:37:10 PM 40.7792 -88.4108 203° Southwest 464 534 26,400 1,210 Climbing Chicago Center
Fri 06:38:12 PM 40.6594 -88.5369 219° Southwest 465 535 27,600 1,161 Climbing Chicago Center
Fri 06:39:14 PM 40.5603 -88.6508 221° Southwest 475 547 28,800 1,403 Climbing Chicago Center
Fri 06:40:16 PM 40.4681 -88.7511 220° Southwest 471 542 30,500 1,548 Climbing Chicago Center
Fri 06:41:18 PM 40.3542 -88.8781 220° Southwest 448 516 32,000 726 Climbing Chicago Center
Fri 06:42:20 PM 40.2608 -88.9806 220° Southwest 437 503 32,000  Level Chicago Center
Fri 06:43:22 PM 40.1644 -89.0856 220° Southwest 446 513 32,000  Level Chicago Center
Fri 06:44:17 PM 40.0875 -89.1711 220° Southwest 446 513 32,000  Level Kansas City Center
Fri 06:45:17 PM 39.9917 -89.2750 220° Southwest 446 513 32,000  Level Kansas City Center
Fri 06:46:22 PM 39.8944 -89.3808 220° Southwest 451 519 32,000  Level Kansas City Center
Fri 06:47:22 PM 39.7806 -89.5056 220° Southwest 447 514 32,000  Level Kansas City Center
Fri 06:48:25 PM 39.6894 -89.6036 220° Southwest 447 514 32,000  Level Kansas City Center
Fri 06:49:28 PM 39.5944 -89.7053 220° Southwest 444 511 32,000  Level Kansas City Center
Fri 06:50:29 PM 39.4994 -89.8067 219° Southwest 444 511 32,000  Level Kansas City Center
Fri 06:51:32 PM 39.4047 -89.9086 220° Southwest 444 511 32,000  Level Kansas City Center
Fri 06:52:33 PM 39.2897 -90.0306 219° Southwest 447 514 32,000  Level Kansas City Center
Fri 06:53:36 PM 39.1936 -90.1331 220° Southwest 448 516 32,000  Level Kansas City Center
Fri 06:54:37 PM 39.0994 -90.2331 220° Southwest 444 511 32,000  Level Kansas City Center
Fri 06:55:38 PM 39.0042 -90.3328 219° Southwest 443 510 32,000  Level Kansas City Center
Fri 06:56:42 PM 38.8972 -90.4475 220° Southwest 434 499 32,000  Level Kansas City Center
Fri 06:57:43 PM 38.8039 -90.5458 219° Southwest 431 496 32,000  Level Kansas City Center
Fri 06:58:46 PM 38.7142 -90.6486 222° Southwest 431 496 32,000  Level Kansas City Center
Fri 06:59:47 PM 38.6242 -90.7572 223° Southwest 457 526 32,000  Level Kansas City Center
Fri 07:00:51 PM 38.5339 -90.8603 222° Southwest 446 513 32,000  Level Kansas City Center
Fri 07:01:51 PM 38.4264 -90.9828 222° Southwest 439 505 32,000  Level Kansas City Center
Fri 07:02:54 PM 38.3333 -91.0894 222° Southwest 444 511 32,000  Level Kansas City Center
Fri 07:03:56 PM 38.2403 -91.1950 222° Southwest 446 513 32,000  Level Kansas City Center
Fri 07:04:57 PM 38.1400 -91.3050 221° Southwest 449 517 32,000  Level Kansas City Center
Fri 07:06:00 PM 38.0464 -91.4106 222° Southwest 448 516 32,000  Level Kansas City Center
Fri 07:07:02 PM 37.9542 -91.5144 222° Southwest 442 509 32,000  Level Kansas City Center
Fri 07:08:02 PM 37.8631 -91.6183 222° Southwest 438 504 32,000  Level Kansas City Center
Fri 07:09:06 PM 37.7708 -91.7217 222° Southwest 439 505 32,000  Level Kansas City Center
Fri 07:10:07 PM 37.6594 -91.8461 222° Southwest 441 507 32,000  Level Kansas City Center
Fri 07:11:11 PM 37.5664 -91.9492 221° Southwest 440 506 32,000  Level Kansas City Center
Fri 07:12:13 PM 37.4728 -92.0544 222° Southwest 445 512 32,000  Level Kansas City Center
Fri 07:13:14 PM 37.3778 -92.1583 221° Southwest 447 514 32,000  Level Kansas City Center
Fri 07:14:17 PM 37.2847 -92.2608 221° Southwest 444 511 32,000  Level Kansas City Center
Fri 07:15:18 PM 37.1906 -92.3631 221° Southwest 444 511 32,000 97 Level Kansas City Center
Fri 07:16:21 PM 37.0958 -92.4667 221° Southwest 448 516 32,200 484 Climbing Kansas City Center
Fri 07:17:22 PM 37.0044 -92.5656 221° Southwest 438 504 33,000 829 Climbing Kansas City Center
Fri 07:18:24 PM 36.8944 -92.6847 221° Southwest 435 501 33,900 476 Climbing Kansas City Center
Fri 07:19:28 PM 36.7986 -92.7803 219° Southwest 439 505 34,000 48 Climbing Kansas City Center
Fri 07:20:28 PM 36.6961 -92.8650 214° Southwest 442 509 34,000  Level Kansas City Center
Fri 07:21:29 PM 36.5956 -92.9533 215° Southwest 440 506 34,000  Level Kansas City Center
Fri 07:22:33 PM 36.4883 -93.0475 215° Southwest 440 506 34,000  Level Kansas City Center
Fri 07:23:34 PM 36.3892 -93.1350 215° Southwest 439 505 34,000  Level Kansas City Center
Fri 07:24:35 PM 36.2883 -93.2228 215° Southwest 442 509 34,000  Level Kansas City Center
Fri 07:25:44 PM 36.1606 -93.3339 215° Southwest 452 520 34,000  Level Memphis Center
Fri 07:26:44 PM 36.0606 -93.4228 216° Southwest 452 520 34,000  Level Memphis Center
Fri 07:27:44 PM 35.9603 -93.5086 215° Southwest 447 514 34,000  Level Memphis Center
Fri 07:28:44 PM 35.8708 -93.5847 215° Southwest 447 514 34,000  Level Memphis Center
Fri 07:29:44 PM 35.7706 -93.6728 215° Southwest 447 514 34,000  Level Memphis Center
Fri 07:30:44 PM 35.6703 -93.7558 214° Southwest 447 514 34,000  Level Memphis Center
Fri 07:31:44 PM 35.5678 -93.8433 215° Southwest 452 520 34,000  Level Memphis Center
Fri 07:32:44 PM 35.4672 -93.9311 215° Southwest 452 520 34,000  Level Memphis Center
Fri 07:33:44 PM 35.3669 -94.0133 214° Southwest 452 520 34,000  Level Memphis Center
Fri 07:34:44 PM 35.2686 -94.0956 214° Southwest 446 513 34,000  Level Memphis Center
Fri 07:35:44 PM 35.1658 -94.1822 215° Southwest 446 513 34,000  Level Memphis Center
Fri 07:36:44 PM 35.0694 -94.2642 215° Southwest 446 513 34,000  Level Memphis Center
Fri 07:37:44 PM 34.9664 -94.3481 214° Southwest 441 507 34,000  Level Memphis Center
Fri 07:40:01 PM 34.7311 -94.5483 215° Southwest 422 486 34,000  Level Fort Worth Center
Fri 07:41:01 PM 34.6308 -94.6350 215° Southwest 437 503 34,000  Level Fort Worth Center
Fri 07:42:01 PM 34.5303 -94.7164 214° Southwest 437 503 34,000  Level Fort Worth Center
Fri 07:43:01 PM 34.4258 -94.8003 214° Southwest 444 511 34,000  Level Fort Worth Center
Fri 07:44:01 PM 34.3253 -94.8861 215° Southwest 444 511 34,000  Level Fort Worth Center
Fri 07:45:01 PM 34.2247 -94.9694 214° Southwest 444 511 34,000  Level Fort Worth Center
Fri 07:46:01 PM 34.1200 -95.0528 213° Southwest 444 511 34,000  Level Fort Worth Center
Fri 07:47:01 PM 34.0192 -95.1356 214° Southwest 444 511 34,000  Level Fort Worth Center
Fri 07:48:01 PM 33.9164 -95.2183 214° Southwest 444 511 34,000  Level Fort Worth Center
Fri 07:49:01 PM 33.8133 -95.3011 214° Southwest 444 511 34,000  Level Fort Worth Center
Fri 07:50:01 PM 33.7125 -95.3833 214° Southwest 444 511 34,000  Level Fort Worth Center
Fri 07:51:01 PM 33.6094 -95.4631 213° Southwest 438 504 34,000  Level Fort Worth Center
Fri 07:52:01 PM 33.5083 -95.5450 214° Southwest 438 504 34,000  Level Fort Worth Center
Fri 07:53:01 PM 33.4156 -95.6142 212° Southwest 438 504 34,000  Level Fort Worth Center
Fri 07:54:01 PM 33.3186 -95.6958 215° Southwest 433 498 34,000  Level Fort Worth Center
Fri 07:55:01 PM 33.2172 -95.7747 213° Southwest 433 498 34,000  Level Fort Worth Center
Fri 07:56:01 PM 33.1119 -95.8558 213° Southwest 438 504 34,000  Level Fort Worth Center
Fri 07:57:01 PM 33.0106 -95.9369 214° Southwest 438 504 34,000  Level Fort Worth Center
Fri 07:58:01 PM 32.9111 -96.0153 213° Southwest 438 504 34,000  Level Fort Worth Center
Fri 07:59:01 PM 32.8097 -96.0958 214° Southwest 438 504 34,000  Level Fort Worth Center
Fri 08:00:01 PM 32.7022 -96.1814 214° Southwest 438 504 34,000  Level Fort Worth Center
Fri 08:01:01 PM 32.6111 -96.2789 222° Southwest 438 504 34,000  Level Fort Worth Center
Fri 08:02:01 PM 32.5392 -96.3931 233° Southwest 426 490 34,000  Level Fort Worth Center
Fri 08:03:01 PM 32.4647 -96.5047 232° Southwest 437 503 34,000  Level Fort Worth Center
Fri 08:04:01 PM 32.3925 -96.6211 234° Southwest 442 509 34,000  Level Fort Worth Center
Fri 08:05:01 PM 32.3200 -96.7350 233° Southwest 442 509 34,000  Level Fort Worth Center
Fri 08:06:01 PM 32.2308 -96.8239 220° Southwest 432 497 34,000 -100 Level Fort Worth Center
Fri 08:07:01 PM 32.1078 -96.8567 193° South 427 491 33,800 -600 Descending Fort Worth Center
Fri 08:08:01 PM 31.9911 -96.9014 198° South 432 497 32,800 -1,400 Descending Fort Worth Center
Fri 08:09:01 PM 31.8742 -96.9486 199° South 443 510 31,000 -1,683 Descending Fort Worth Center
Fri 08:09:23 PM 31.8325 -96.9644 198° South 452 520 30,500 -1,643 Descending Houston Center
Fri 08:10:25 PM 31.7117 -97.0119 198° South 454 522 28,700 -1,839 Descending Houston Center
Fri 08:11:27 PM 31.5908 -97.0592 198° South 452 520 26,700 -1,790 Descending Houston Center
Fri 08:12:29 PM 31.4750 -97.1056 199° South 438 504 25,000 -1,805 Descending Houston Center
Fri 08:13:30 PM 31.3661 -97.1475 198° South 412 474 23,000 -1,610 Descending Houston Center
Fri 08:14:32 PM 31.2594 -97.1894 199° South 403 464 21,700 -1,694 Descending Houston Center
Fri 08:15:34 PM 31.1589 -97.2289 199° South 382 440 19,500 -2,419 Descending Houston Center
Fri 08:16:36 PM 31.0481 -97.2722 199° South 361 415 16,700 -2,565 Descending Houston Center
Fri 08:17:38 PM 30.9592 -97.3083 199° South 349 402 14,200 -1,742 Descending Houston Center
Fri 08:18:40 PM 30.8681 -97.3411 197° South 348 400 13,100 -1,210 Descending Houston Center
Fri 08:19:42 PM 30.7831 -97.3894 206° Southwest 341 392 11,700 -1,122 Descending Houston Center
Fri 08:20:43 PM 30.7225 -97.4664 228° Southwest 323 372 10,800 -1,171 Descending Houston Center
Fri 08:21:45 PM 30.6681 -97.5383 229° Southwest 299 344 9,300 -1,839 Descending Houston Center
Fri 08:22:47 PM 30.5886 -97.5897 209° Southwest 285 328 7,000 -2,081 Descending Houston Center
Fri 08:23:49 PM 30.5144 -97.6125 195° South 277 319 5,000 -1,597 Descending Houston Center
Fri 08:24:51 PM 30.4411 -97.6344 194° South 271 312 3,700 -1,113 Descending Houston Center
Fri 08:25:53 PM 30.3742 -97.6561 196° South 253 291 2,700 -968 Descending Houston Center

Login

Don't have an account? Register now (free) for customized features, flight alerts, and more!